createdAt,value
2022-11-13T00:00:20.208Z,5.93
2022-11-13T00:03:41.589Z,9.48
2022-11-13T00:07:02.936Z,13.65
2022-11-13T00:10:24.409Z,8.88
2022-11-13T00:13:46.496Z,13.60
2022-11-13T00:17:07.815Z,12.18
2022-11-13T00:20:29.155Z,11.50
2022-11-13T00:23:52.001Z,9.35
2022-11-13T00:27:13.824Z,13.05
2022-11-13T00:30:35.306Z,11.80
2022-11-13T00:37:39.812Z,12.98
2022-11-13T00:41:01.542Z,17.77
2022-11-13T00:44:24.066Z,21.23
2022-11-13T00:47:45.599Z,21.42
2022-11-13T00:51:06.960Z,15.00
2022-11-13T00:54:28.163Z,13.07
2022-11-13T00:57:49.308Z,13.10
2022-11-13T01:01:14.513Z,14.48
2022-11-13T01:07:56.732Z,13.57
2022-11-13T01:11:23.766Z,14.57
2022-11-13T01:14:44.746Z,14.25
2022-11-13T01:18:06.125Z,14.00
2022-11-13T01:21:28.967Z,16.17
2022-11-13T01:24:50.380Z,14.73
2022-11-13T01:28:11.999Z,13.25
2022-11-13T01:31:33.563Z,14.10
2022-11-13T01:34:58.294Z,14.20
2022-11-13T01:38:19.857Z,14.77
2022-11-13T01:41:41.649Z,16.42
2022-11-13T01:45:03.198Z,26.30
2022-11-13T01:48:28.043Z,24.55
2022-11-13T01:51:54.558Z,24.90
2022-11-13T01:55:19.506Z,20.38
2022-11-13T01:58:43.482Z,20.35
2022-11-13T02:02:05.471Z,27.83
2022-11-13T02:05:27.067Z,8.60
2022-11-13T02:08:50.436Z,48.00
2022-11-13T02:12:14.547Z,9.55
2022-11-13T02:15:36.654Z,16.73
2022-11-13T02:18:58.698Z,9.88
2022-11-13T02:22:26.112Z,15.20
2022-11-13T02:25:50.611Z,8.13
2022-11-13T02:29:12.149Z,8.10
2022-11-13T02:32:33.745Z,9.52
2022-11-13T02:35:57.070Z,7.18
2022-11-13T02:39:18.518Z,6.25
2022-11-13T02:42:39.783Z,18.92
2022-11-13T02:46:01.382Z,7.35
2022-11-13T02:49:23.192Z,6.85
2022-11-13T02:52:44.653Z,6.88
2022-11-13T02:56:06.380Z,5.82
2022-11-13T02:59:27.831Z,6.43
2022-11-13T03:02:49.400Z,5.63
2022-11-13T03:06:13.178Z,6.22
2022-11-13T03:09:34.401Z,6.47
2022-11-13T03:12:55.853Z,6.35
2022-11-13T03:16:18.245Z,6.22
2022-11-13T03:19:39.771Z,4.68
2022-11-13T03:23:01.142Z,4.72
2022-11-13T03:26:22.996Z,5.85
2022-11-13T03:29:44.445Z,6.55
2022-11-13T03:33:05.572Z,5.65
2022-11-13T03:36:27.239Z,5.88
2022-11-13T03:39:48.446Z,6.78
2022-11-13T03:43:09.796Z,6.15
2022-11-13T03:46:31.399Z,7.07
2022-11-13T03:49:53.083Z,6.85
2022-11-13T03:53:15.164Z,7.45
2022-11-13T03:56:36.903Z,5.28
2022-11-13T03:59:58.086Z,4.55
2022-11-13T04:03:20.855Z,3.40
2022-11-13T04:06:42.786Z,5.30
2022-11-13T04:10:05.267Z,3.70
2022-11-13T04:13:27.697Z,8.40
2022-11-13T04:16:48.848Z,4.97
2022-11-13T04:20:11.162Z,4.15
2022-11-13T04:23:35.644Z,3.15
2022-11-13T04:26:57.894Z,3.83
2022-11-13T04:30:20.419Z,3.80
2022-11-13T04:33:42.075Z,3.60
2022-11-13T04:37:03.677Z,4.45
2022-11-13T04:40:28.290Z,3.85
2022-11-13T04:43:49.815Z,3.58
2022-11-13T04:47:14.631Z,2.70
2022-11-13T04:50:39.112Z,2.40
2022-11-13T04:54:02.109Z,2.63
2022-11-13T04:57:23.879Z,2.25
2022-11-13T05:00:45.548Z,2.60
2022-11-13T05:04:06.956Z,2.78
2022-11-13T05:07:28.631Z,2.70
2022-11-13T05:10:50.084Z,4.28
2022-11-13T05:14:14.666Z,4.47
2022-11-13T05:17:36.171Z,3.50
2022-11-13T05:20:57.969Z,3.90
2022-11-13T05:24:19.595Z,3.83
2022-11-13T05:27:41.274Z,2.80
2022-11-13T05:31:11.402Z,3.58
2022-11-13T05:34:33.176Z,3.10
2022-11-13T05:37:54.603Z,3.13
2022-11-13T05:41:21.344Z,2.97
2022-11-13T05:44:42.921Z,10.95
2022-11-13T05:48:04.631Z,3.22
2022-11-13T05:51:28.943Z,3.00
2022-11-13T05:54:50.619Z,2.50
2022-11-13T05:58:13.472Z,2.95
2022-11-13T06:01:38.180Z,3.20
2022-11-13T06:04:59.572Z,2.83
2022-11-13T06:08:20.913Z,3.80
2022-11-13T06:11:42.301Z,3.90
2022-11-13T06:15:03.598Z,2.30
2022-11-13T06:18:26.759Z,2.90
2022-11-13T06:21:48.724Z,3.38
2022-11-13T06:25:10.155Z,5.13
2022-11-13T06:28:31.756Z,3.30
2022-11-13T06:31:52.967Z,3.45
2022-11-13T06:35:14.290Z,2.60
2022-11-13T06:38:37.919Z,2.72
2022-11-13T06:41:59.399Z,3.17
2022-11-13T06:45:21.117Z,3.05
2022-11-13T06:48:42.829Z,2.28
2022-11-13T06:52:04.110Z,2.42
2022-11-13T06:55:25.506Z,3.20
2022-11-13T06:58:47.259Z,2.78
2022-11-13T07:02:10.655Z,2.60
2022-11-13T07:05:32.150Z,4.07
2022-11-13T07:08:53.754Z,6.78
2022-11-13T07:12:15.438Z,3.50
2022-11-13T07:15:41.118Z,2.70
2022-11-13T07:19:02.674Z,2.80
2022-11-13T07:22:24.001Z,3.10
2022-11-13T07:25:45.222Z,2.65
2022-11-13T07:29:06.614Z,3.10
2022-11-13T07:32:28.222Z,4.60
2022-11-13T07:35:49.708Z,3.90
2022-11-13T07:39:10.830Z,4.07
2022-11-13T07:42:32.753Z,5.43
2022-11-13T07:45:57.437Z,5.40
2022-11-13T07:49:19.039Z,4.20
2022-11-13T07:52:40.454Z,5.60
2022-11-13T07:56:03.390Z,7.68
2022-11-13T07:59:24.699Z,9.27
2022-11-13T08:02:48.349Z,7.07
2022-11-13T08:06:10.049Z,6.72
2022-11-13T08:09:31.308Z,6.70
2022-11-13T08:13:00.721Z,6.55
2022-11-13T08:16:24.978Z,5.10
2022-11-13T08:19:46.159Z,6.40
2022-11-13T08:23:07.804Z,5.47
2022-11-13T08:26:29.272Z,9.05
2022-11-13T08:29:51.788Z,7.63
2022-11-13T08:33:13.579Z,8.10
2022-11-13T08:36:35.241Z,14.80
2022-11-13T08:39:56.648Z,31.27
2022-11-13T08:43:18.869Z,27.50
2022-11-13T08:46:40.107Z,25.45
2022-11-13T08:50:01.580Z,32.38
2022-11-13T08:53:26.534Z,18.52
2022-11-13T08:56:56.715Z,18.08
2022-11-13T09:00:21.339Z,12.27
2022-11-13T09:03:43.266Z,8.82
2022-11-13T09:07:05.088Z,8.38
2022-11-13T09:10:27.779Z,7.32
2022-11-13T09:13:53.086Z,8.57
2022-11-13T09:17:15.473Z,12.32
2022-11-13T09:20:36.700Z,12.88
2022-11-13T09:23:58.420Z,11.52
2022-11-13T09:27:20.056Z,18.38
2022-11-13T09:30:42.444Z,14.23
2022-11-13T09:34:04.096Z,9.75
2022-11-13T09:37:25.629Z,9.48
2022-11-13T09:40:53.830Z,13.30
2022-11-13T09:44:30.485Z,12.45
2022-11-13T09:47:54.591Z,10.70
2022-11-13T09:51:32.121Z,12.25
2022-11-13T09:54:54.525Z,12.70
2022-11-13T09:58:47.968Z,14.00
2022-11-13T10:02:09.665Z,12.68
2022-11-13T10:06:04.421Z,14.15
2022-11-13T10:09:56.235Z,22.38
2022-11-13T10:13:25.005Z,12.60
2022-11-13T10:16:55.744Z,15.63
2022-11-13T10:20:24.441Z,19.23
2022-11-13T10:23:51.214Z,21.92
2022-11-13T10:27:14.864Z,18.05
2022-11-13T10:30:36.426Z,19.00
2022-11-13T10:33:59.092Z,30.38
2022-11-13T10:37:45.249Z,25.55
2022-11-13T10:41:18.325Z,11.32
2022-11-13T10:44:41.337Z,11.68
2022-11-13T10:48:04.773Z,12.48
2022-11-13T10:51:32.491Z,13.90
2022-11-13T10:55:15.240Z,12.20
2022-11-13T10:58:36.894Z,18.63
2022-11-13T11:02:09.151Z,10.43
2022-11-13T11:05:30.928Z,12.93
2022-11-13T11:08:52.623Z,11.57
2022-11-13T11:12:27.225Z,11.38
2022-11-13T11:16:02.383Z,13.35
2022-11-13T11:19:27.332Z,11.07
2022-11-13T11:22:58.685Z,11.18
2022-11-13T11:26:40.498Z,10.57
2022-11-13T11:30:05.704Z,10.00
2022-11-13T11:33:34.837Z,10.48
2022-11-13T11:37:07.765Z,11.02
2022-11-13T11:40:38.696Z,9.88
2022-11-13T11:44:26.062Z,9.20
2022-11-13T11:47:47.431Z,10.57
2022-11-13T11:51:22.103Z,9.93
2022-11-13T11:54:52.038Z,9.25
2022-11-13T11:58:34.996Z,10.35
2022-11-13T12:02:39.240Z,10.68
2022-11-13T12:06:15.364Z,9.88
2022-11-13T12:10:02.147Z,9.70
2022-11-13T12:13:39.585Z,9.23
2022-11-13T12:17:19.270Z,10.10
2022-11-13T12:21:04.808Z,8.02
2022-11-13T12:24:51.966Z,8.10
2022-11-13T12:28:22.089Z,9.38
2022-11-13T12:31:45.967Z,9.27
2022-11-13T12:35:24.156Z,10.52
2022-11-13T12:38:57.726Z,9.60
2022-11-13T12:42:44.635Z,10.45
2022-11-13T12:46:12.038Z,8.82
2022-11-13T12:49:36.258Z,8.45
2022-11-13T12:53:08.230Z,7.82
2022-11-13T12:56:34.358Z,6.78
2022-11-13T13:00:11.270Z,4.75
2022-11-13T13:03:32.596Z,5.60
2022-11-13T13:07:31.254Z,5.60
2022-11-13T13:11:03.006Z,5.40
2022-11-13T13:14:55.667Z,5.72
2022-11-13T13:18:19.878Z,5.47
2022-11-13T13:21:45.244Z,5.40
2022-11-13T13:28:39.405Z,4.88
2022-11-13T13:32:22.417Z,8.07
2022-11-13T13:36:09.188Z,6.68
2022-11-13T13:39:39.373Z,4.85
2022-11-13T13:43:19.118Z,6.25
2022-11-13T13:46:42.324Z,5.55
2022-11-13T13:50:07.986Z,6.25
2022-11-13T13:53:34.699Z,5.63
2022-11-13T13:57:01.483Z,9.52
2022-11-13T14:00:23.422Z,5.82
2022-11-13T14:03:44.843Z,4.90
2022-11-13T14:07:19.509Z,7.22
2022-11-13T14:10:41.314Z,4.07
2022-11-13T14:14:24.240Z,12.00
2022-11-13T14:17:45.893Z,6.40
2022-11-13T14:21:21.650Z,7.97
2022-11-13T14:24:50.995Z,6.50
2022-11-13T14:28:20.434Z,3.63
2022-11-13T14:31:42.301Z,3.67
2022-11-13T14:35:05.936Z,4.45
2022-11-13T14:38:41.366Z,4.72
2022-11-13T14:45:25.279Z,3.13
2022-11-13T14:48:55.259Z,3.90
2022-11-13T14:52:27.896Z,4.22
2022-11-13T14:55:54.489Z,3.53
2022-11-13T14:59:20.135Z,3.10
2022-11-13T15:02:41.663Z,4.07
2022-11-13T15:06:02.942Z,4.03
2022-11-13T15:09:26.235Z,4.03
2022-11-13T15:12:49.471Z,3.60
2022-11-13T15:16:15.952Z,4.28
2022-11-13T15:19:38.604Z,3.33
2022-11-13T15:23:00.954Z,4.32
2022-11-13T15:26:22.474Z,3.67
2022-11-13T15:29:45.204Z,3.55
2022-11-13T15:33:24.745Z,4.15
2022-11-13T15:36:46.619Z,3.30
2022-11-13T15:40:08.899Z,3.28
2022-11-13T15:43:30.689Z,3.10
2022-11-13T15:46:52.245Z,3.17
2022-11-13T15:50:15.641Z,3.35
2022-11-13T15:53:37.515Z,2.35
2022-11-13T15:56:58.617Z,2.90
2022-11-13T16:00:25.555Z,3.17
2022-11-13T16:03:46.906Z,3.47
2022-11-13T16:07:14.449Z,3.00
2022-11-13T16:10:36.347Z,2.88
2022-11-13T16:13:58.033Z,3.63
2022-11-13T16:17:21.453Z,3.30
2022-11-13T16:20:42.751Z,2.95
2022-11-13T16:24:04.117Z,3.10
2022-11-13T16:27:31.948Z,2.67
2022-11-13T16:30:53.642Z,4.07
2022-11-13T16:34:15.106Z,3.90
2022-11-13T16:37:36.418Z,3.72
2022-11-13T16:40:57.730Z,4.47
2022-11-13T16:44:19.138Z,4.20
2022-11-13T16:47:40.800Z,4.10
2022-11-13T16:51:02.402Z,4.05
2022-11-13T16:54:24.204Z,4.25
2022-11-13T16:57:45.561Z,4.65
2022-11-13T17:01:07.197Z,3.97
2022-11-13T17:04:28.693Z,3.83
2022-11-13T17:07:53.248Z,4.68
2022-11-13T17:11:15.597Z,3.50
2022-11-13T17:14:38.299Z,3.42
2022-11-13T17:18:00.186Z,4.30
2022-11-13T17:21:27.558Z,5.13
2022-11-13T17:24:50.369Z,4.50
2022-11-13T17:28:11.585Z,5.13
2022-11-13T17:31:32.954Z,5.65
2022-11-13T17:34:54.232Z,5.65
2022-11-13T17:38:17.147Z,5.65
2022-11-13T17:41:38.655Z,4.97
2022-11-13T17:45:00.221Z,4.10
2022-11-13T17:48:21.642Z,4.00
2022-11-13T17:51:43.047Z,4.88
2022-11-13T17:55:06.599Z,4.93
2022-11-13T17:58:28.774Z,4.43
2022-11-13T18:01:50.059Z,4.53
2022-11-13T18:05:11.301Z,9.07
2022-11-13T18:08:32.716Z,7.78
2022-11-13T18:11:53.912Z,12.88
2022-11-13T18:15:16.025Z,11.73
2022-11-13T18:18:38.258Z,9.35
2022-11-13T18:21:59.876Z,10.25
2022-11-13T18:25:22.373Z,7.35
2022-11-13T18:28:44.684Z,5.13
2022-11-13T18:32:06.470Z,5.00
2022-11-13T18:35:27.895Z,7.15
2022-11-13T18:38:49.407Z,6.03
2022-11-13T18:42:10.512Z,7.43
2022-11-13T18:45:31.883Z,3.72
2022-11-13T18:48:53.399Z,8.45
2022-11-13T18:52:14.787Z,4.45
2022-11-13T18:55:36.339Z,5.55
2022-11-13T18:58:59.384Z,8.23
2022-11-13T19:02:20.836Z,6.47
2022-11-13T19:05:46.687Z,4.20
2022-11-13T19:09:11.962Z,4.32
2022-11-13T19:12:34.899Z,2.90
2022-11-13T19:15:56.321Z,3.05
2022-11-13T19:19:20.818Z,2.50
2022-11-13T19:22:42.066Z,3.38
2022-11-13T19:26:04.173Z,4.72
2022-11-13T19:29:25.585Z,5.15
2022-11-13T19:32:48.187Z,7.03
2022-11-13T19:36:17.938Z,4.28
2022-11-13T19:39:39.681Z,5.97
2022-11-13T19:43:01.146Z,4.55
2022-11-13T19:46:22.487Z,4.30
2022-11-13T19:49:43.750Z,4.65
2022-11-13T19:53:05.718Z,7.53
2022-11-13T19:56:31.476Z,6.50
2022-11-13T19:59:53.842Z,8.98
2022-11-13T20:03:15.555Z,10.50
2022-11-13T20:06:37.202Z,13.15
2022-11-13T20:09:58.669Z,12.93
2022-11-13T20:13:20.013Z,14.27
2022-11-13T20:16:41.011Z,12.30
2022-11-13T20:20:02.201Z,12.02
2022-11-13T20:23:23.521Z,10.45
2022-11-13T20:26:45.021Z,10.57
2022-11-13T20:30:06.845Z,9.65
2022-11-13T20:33:28.372Z,11.63
2022-11-13T20:36:49.741Z,9.48
2022-11-13T20:40:11.923Z,9.80
2022-11-13T20:43:33.866Z,9.77
2022-11-13T20:46:55.398Z,10.13
2022-11-13T20:50:16.891Z,9.88
2022-11-13T20:53:38.943Z,11.25
2022-11-13T20:57:00.469Z,10.88
2022-11-13T21:00:21.777Z,10.23
2022-11-13T21:03:45.203Z,7.78
2022-11-13T21:07:06.835Z,9.57
2022-11-13T21:10:28.262Z,8.55
2022-11-13T21:13:50.452Z,7.32
2022-11-13T21:17:12.097Z,7.18
2022-11-13T21:20:37.264Z,6.63
2022-11-13T21:23:59.717Z,8.38
2022-11-13T21:27:21.154Z,7.05
2022-11-13T21:30:42.568Z,7.03
2022-11-13T21:34:04.674Z,8.27
2022-11-13T21:37:27.091Z,7.97
2022-11-13T21:41:08.255Z,8.63
2022-11-13T21:44:29.706Z,11.35
2022-11-13T21:47:50.805Z,7.28
2022-11-13T21:51:12.400Z,6.35
2022-11-13T21:54:33.618Z,6.63
2022-11-13T21:57:55.274Z,7.47
2022-11-13T22:01:16.923Z,6.35
2022-11-13T22:04:38.451Z,6.28
2022-11-13T22:07:59.920Z,6.32
2022-11-13T22:11:21.306Z,7.38
2022-11-13T22:14:43.027Z,5.25
2022-11-13T22:18:04.474Z,5.95
2022-11-13T22:21:27.322Z,6.15
2022-11-13T22:24:48.776Z,4.90
2022-11-13T22:28:10.289Z,6.03
2022-11-13T22:31:33.768Z,4.55
2022-11-13T22:34:54.999Z,7.03
2022-11-13T22:38:17.277Z,8.82
2022-11-13T22:41:38.606Z,10.13
2022-11-13T22:44:59.947Z,11.90
2022-11-13T22:48:21.550Z,11.77
2022-11-13T22:51:42.888Z,10.98
2022-11-13T22:55:04.486Z,8.90
2022-11-13T22:58:27.939Z,4.85
2022-11-13T23:01:49.286Z,3.67
2022-11-13T23:05:10.375Z,10.05
2022-11-13T23:08:32.296Z,7.30
2022-11-13T23:11:54.067Z,5.93
2022-11-13T23:15:15.374Z,4.88
2022-11-13T23:18:36.704Z,6.90
2022-11-13T23:21:58.166Z,6.18
2022-11-13T23:25:19.902Z,6.32
2022-11-13T23:28:41.104Z,6.78
2022-11-13T23:32:02.535Z,8.88
2022-11-13T23:35:23.866Z,8.35
2022-11-13T23:38:45.309Z,8.88
2022-11-13T23:42:06.587Z,8.93
2022-11-13T23:45:28.180Z,11.75
2022-11-13T23:48:49.960Z,11.25
2022-11-13T23:52:11.373Z,11.35
2022-11-13T23:55:32.892Z,10.15
2022-11-13T23:58:54.270Z,10.18
